Time,TemperatureF,DewpointF,PressureIn,WindDirection,WindDirectionDegrees,WindSpeedMPH,WindSpeedGustMPH,Humidity,HourlyPrecipIn,Conditions,Clouds,dailyrainin,SoftwareType,DateUTC
2013-03-24 00:00:00,24.0,-1.6,30.14,North,360,4.0,7.0,32,0.00,,,0.00,Weather View 32 v70,2013-03-24 06:00:00,
2013-03-24 00:05:00,23.0,-2.5,30.14,North,360,2.0,7.0,32,0.00,,,0.00,Weather View 32 v70,2013-03-24 06:05:00,
2013-03-24 00:10:00,23.0,-2.5,30.14,North,360,3.0,7.0,32,0.00,,,0.00,Weather View 32 v70,2013-03-24 06:10:00,
2013-03-24 00:15:00,23.0,-0.6,30.14,North,360,0.0,7.0,35,0.00,,,0.00,Weather View 32 v70,2013-03-24 06:15:00,
2013-03-24 00:20:00,23.0,-1.2,30.14,North,360,3.0,7.0,34,0.00,,,0.00,Weather View 32 v70,2013-03-24 06:20:00,
2013-03-24 00:25:00,23.0,-1.8,30.14,North,360,3.0,7.0,33,0.00,,,0.00,Weather View 32 v70,2013-03-24 06:25:00,
2013-03-24 00:30:00,23.0,-1.8,30.14,North,360,3.0,6.0,33,0.00,,,0.00,Weather View 32 v70,2013-03-24 06:30:00,
2013-03-24 00:35:00,23.0,-1.8,30.14,North,360,0.0,6.0,33,0.00,,,0.00,Weather View 32 v70,2013-03-24 06:35:00,
2013-03-24 00:40:00,22.0,-2.7,30.14,North,360,0.0,6.0,33,0.00,,,0.00,Weather View 32 v70,2013-03-24 06:40:00,
2013-03-24 00:45:00,22.0,-2.7,30.14,North,360,0.0,5.0,33,0.00,,,0.00,Weather View 32 v70,2013-03-24 06:45:00,
2013-03-24 00:50:00,22.0,-0.9,30.14,North,360,0.0,5.0,36,0.00,,,0.00,Weather View 32 v70,2013-03-24 06:50:00,
2013-03-24 00:55:00,21.0,-1.2,30.14,SE,135,3.0,5.0,37,0.00,,,0.00,Weather View 32 v70,2013-03-24 06:55:00,
2013-03-24 01:00:00,22.0,-0.9,30.14,East,90,5.0,6.0,36,0.00,,,0.00,Weather View 32 v70,2013-03-24 07:00:00,
2013-03-24 01:05:00,22.0,-1.5,30.14,East,90,5.0,6.0,35,0.00,,,0.00,Weather View 32 v70,2013-03-24 07:05:00,
2013-03-24 01:10:00,22.0,-2.1,30.14,NNE,22,3.0,6.0,34,0.00,,,0.00,Weather View 32 v70,2013-03-24 07:10:00,
2013-03-24 01:15:00,22.0,-1.5,30.14,NNE,22,3.0,6.0,35,0.00,,,0.00,Weather View 32 v70,2013-03-24 07:15:00,
2013-03-24 01:20:00,22.0,-2.7,30.14,NNE,22,1.0,6.0,33,0.00,,,0.00,Weather View 32 v70,2013-03-24 07:20:00,
2013-03-24 01:25:00,22.0,-2.1,30.14,NNE,22,0.0,6.0,34,0.00,,,0.00,Weather View 32 v70,2013-03-24 07:25:00,
2013-03-24 01:30:00,22.0,-1.5,30.15,NNE,22,3.0,6.0,35,0.00,,,0.00,Weather View 32 v70,2013-03-24 07:30:00,
2013-03-24 01:35:00,22.0,-0.3,30.15,NNE,22,1.0,6.0,37,0.00,,,0.00,Weather View 32 v70,2013-03-24 07:35:00,
2013-03-24 01:40:00,22.0,-0.3,30.14,NNE,22,1.0,6.0,37,0.00,,,0.00,Weather View 32 v70,2013-03-24 07:40:00,
2013-03-24 01:45:00,21.0,-0.6,30.14,ENE,67,4.0,6.0,38,0.00,,,0.00,Weather View 32 v70,2013-03-24 07:45:00,
2013-03-24 01:50:00,21.0,-1.2,30.14,ENE,67,4.0,6.0,37,0.00,,,0.00,Weather View 32 v70,2013-03-24 07:50:00,
2013-03-24 01:55:00,21.0,-1.2,30.14,NE,45,5.0,6.0,37,0.00,,,0.00,Weather View 32 v70,2013-03-24 07:55:00,
2013-03-24 02:00:00,21.0,-0.6,30.14,ENE,67,5.0,7.0,38,0.00,,,0.00,Weather View 32 v70,2013-03-24 08:00:00,
2013-03-24 02:05:00,21.0,-0.1,30.14,ENE,67,4.0,7.0,39,0.00,,,0.00,Weather View 32 v70,2013-03-24 08:05:00,
2013-03-24 02:10:00,21.0,0.5,30.14,ENE,67,4.0,7.0,40,0.00,,,0.00,Weather View 32 v70,2013-03-24 08:10:00,
2013-03-24 02:15:00,21.0,1.0,30.14,ENE,67,0.0,7.0,41,0.00,,,0.00,Weather View 32 v70,2013-03-24 08:15:00,
2013-03-24 02:20:00,21.0,1.5,30.15,ENE,67,0.0,7.0,42,0.00,,,0.00,Weather View 32 v70,2013-03-24 08:20:00,
2013-03-24 02:25:00,20.0,1.6,30.15,ENE,67,5.0,7.0,44,0.00,,,0.00,Weather View 32 v70,2013-03-24 08:25:00,
2013-03-24 02:30:00,20.0,2.1,30.14,ENE,67,3.0,7.0,45,0.00,,,0.00,Weather View 32 v70,2013-03-24 08:30:00,
2013-03-24 02:35:00,19.0,1.6,30.14,ENE,67,4.0,7.0,46,0.00,,,0.00,Weather View 32 v70,2013-03-24 08:35:00,
2013-03-24 02:40:00,19.0,1.6,30.14,ENE,67,5.0,7.0,46,0.00,,,0.00,Weather View 32 v70,2013-03-24 08:40:00,
2013-03-24 02:45:00,19.0,1.6,30.14,ENE,67,3.0,7.0,46,0.00,,,0.00,Weather View 32 v70,2013-03-24 08:45:00,
2013-03-24 02:50:00,19.0,1.6,30.14,ENE,67,3.0,7.0,46,0.00,,,0.00,Weather View 32 v70,2013-03-24 08:50:00,
2013-03-24 02:55:00,19.0,2.5,30.14,ENE,67,5.0,7.0,48,0.00,,,0.00,Weather View 32 v70,2013-03-24 08:55:00,
2013-03-24 03:00:00,19.0,2.1,30.14,ENE,67,4.0,7.0,47,0.00,,,0.00,Weather View 32 v70,2013-03-24 09:00:00,
2013-03-24 03:05:00,18.0,1.6,30.14,ENE,67,5.0,6.0,48,0.00,,,0.00,Weather View 32 v70,2013-03-24 09:05:00,
2013-03-24 03:10:00,18.0,1.6,30.14,ENE,67,3.0,6.0,48,0.00,,,0.00,Weather View 32 v70,2013-03-24 09:10:00,
2013-03-24 03:15:00,18.0,2.5,30.14,ENE,67,3.0,6.0,50,0.00,,,0.00,Weather View 32 v70,2013-03-24 09:15:00,
2013-03-24 03:20:00,18.0,2.5,30.14,ENE,67,0.0,6.0,50,0.00,,,0.00,Weather View 32 v70,2013-03-24 09:20:00,
2013-03-24 03:25:00,17.0,2.0,30.14,East,90,2.0,6.0,51,0.00,,,0.00,Weather View 32 v70,2013-03-24 09:25:00,
2013-03-24 03:30:00,17.0,2.0,30.14,ESE,112,3.0,6.0,51,0.00,,,0.00,Weather View 32 v70,2013-03-24 09:30:00,
2013-03-24 03:35:00,17.0,2.4,30.14,East,90,5.0,6.0,52,0.00,,,0.00,Weather View 32 v70,2013-03-24 09:35:00,
2013-03-24 03:40:00,17.0,2.0,30.14,East,90,2.0,6.0,51,0.00,,,0.00,Weather View 32 v70,2013-03-24 09:40:00,
2013-03-24 03:45:00,17.0,2.4,30.14,East,90,3.0,6.0,52,0.00,,,0.00,Weather View 32 v70,2013-03-24 09:45:00,
2013-03-24 03:49:00,17.0,2.4,30.14,East,90,2.0,6.0,52,0.00,,,0.00,Weather View 32 v70,2013-03-24 09:49:00,
2013-03-24 03:54:00,16.0,1.5,30.14,East,90,2.0,6.0,52,0.00,,,0.00,Weather View 32 v70,2013-03-24 09:54:00,
2013-03-24 03:59:00,16.0,2.3,30.14,East,90,1.0,6.0,54,0.00,,,0.00,Weather View 32 v70,2013-03-24 09:59:00,
2013-03-24 04:04:00,16.0,2.7,30.14,East,90,0.0,6.0,55,0.00,,,0.00,Weather View 32 v70,2013-03-24 10:04:00,
2013-03-24 04:09:00,16.0,3.1,30.15,East,90,2.0,6.0,56,0.00,,,0.00,Weather View 32 v70,2013-03-24 10:09:00,
2013-03-24 04:14:00,15.0,2.9,30.15,East,90,0.0,6.0,58,0.00,,,0.00,Weather View 32 v70,2013-03-24 10:14:00,
2013-03-24 04:19:00,15.0,2.9,30.14,East,90,1.0,6.0,58,0.00,,,0.00,Weather View 32 v70,2013-03-24 10:19:00,
2013-03-24 04:24:00,15.0,2.1,30.14,East,90,2.0,6.0,56,0.00,,,0.00,Weather View 32 v70,2013-03-24 10:24:00,
2013-03-24 04:29:00,16.0,2.3,30.14,East,90,2.0,6.0,54,0.00,,,0.00,Weather View 32 v70,2013-03-24 10:29:00,
2013-03-24 04:34:00,16.0,2.3,30.14,East,90,3.0,6.0,54,0.00,,,0.00,Weather View 32 v70,2013-03-24 10:34:00,
2013-03-24 04:39:00,16.0,2.3,30.14,East,90,4.0,6.0,54,0.00,,,0.00,Weather View 32 v70,2013-03-24 10:39:00,
2013-03-24 04:44:00,15.0,2.5,30.14,East,90,2.0,5.0,57,0.00,,,0.00,Weather View 32 v70,2013-03-24 10:44:00,
2013-03-24 04:50:00,15.0,2.5,30.15,East,90,2.0,5.0,57,0.00,,,0.00,Weather View 32 v70,2013-03-24 10:50:00,
2013-03-24 04:55:00,15.0,2.9,30.15,East,90,3.0,5.0,58,0.00,,,0.00,Weather View 32 v70,2013-03-24 10:55:00,
2013-03-24 05:00:00,15.0,2.5,30.15,East,90,3.0,5.0,57,0.00,,,0.00,Weather View 32 v70,2013-03-24 11:00:00,
2013-03-24 05:05:00,15.0,2.9,30.15,East,90,0.0,5.0,58,0.00,,,0.00,Weather View 32 v70,2013-03-24 11:05:00,
2013-03-24 05:10:00,15.0,2.9,30.15,East,90,0.0,5.0,58,0.00,,,0.00,Weather View 32 v70,2013-03-24 11:10:00,
2013-03-24 05:15:00,14.0,3.0,30.15,East,90,3.0,5.0,61,0.00,,,0.00,Weather View 32 v70,2013-03-24 11:15:00,
2013-03-24 05:20:00,14.0,3.0,30.15,East,90,5.0,5.0,61,0.00,,,0.00,Weather View 32 v70,2013-03-24 11:20:00,
2013-03-24 05:25:00,14.0,1.9,30.15,East,90,1.0,5.0,58,0.00,,,0.00,Weather View 32 v70,2013-03-24 11:25:00,
2013-03-24 05:30:00,15.0,2.9,30.16,East,90,2.0,5.0,58,0.00,,,0.00,Weather View 32 v70,2013-03-24 11:30:00,
2013-03-24 05:35:00,15.0,2.5,30.16,East,90,0.0,5.0,57,0.00,,,0.00,Weather View 32 v70,2013-03-24 11:35:00,
2013-03-24 05:41:00,15.0,2.1,30.16,East,90,0.0,5.0,56,0.00,,,0.00,Weather View 32 v70,2013-03-24 11:41:00,
2013-03-24 05:46:00,14.0,1.9,30.16,East,90,0.0,5.0,58,0.00,,,0.00,Weather View 32 v70,2013-03-24 11:46:00,
2013-03-24 05:51:00,14.0,2.7,30.16,East,90,2.0,5.0,60,0.00,,,0.00,Weather View 32 v70,2013-03-24 11:51:00,
2013-03-24 05:56:00,14.0,3.4,30.16,East,90,1.0,5.0,62,0.00,,,0.00,Weather View 32 v70,2013-03-24 11:56:00,
2013-03-24 06:01:00,14.0,4.4,30.16,East,90,2.0,5.0,65,0.00,,,0.00,Weather View 32 v70,2013-03-24 12:01:00,
2013-03-24 06:07:00,13.0,3.8,30.16,East,90,4.0,5.0,66,0.00,,,0.00,Weather View 32 v70,2013-03-24 12:07:00,
2013-03-24 06:12:00,13.0,3.5,30.16,East,90,3.0,6.0,65,0.00,,,0.00,Weather View 32 v70,2013-03-24 12:12:00,
2013-03-24 06:17:00,13.0,3.1,30.16,East,90,0.0,6.0,64,0.00,,,0.00,Weather View 32 v70,2013-03-24 12:17:00,
2013-03-24 06:22:00,13.0,3.5,30.16,East,90,0.0,6.0,65,0.00,,,0.00,Weather View 32 v70,2013-03-24 12:22:00,
2013-03-24 06:27:00,13.0,3.8,30.16,East,90,0.0,6.0,66,0.00,,,0.00,Weather View 32 v70,2013-03-24 12:27:00,
2013-03-24 06:32:00,13.0,4.4,30.16,East,90,3.0,6.0,68,0.00,,,0.00,Weather View 32 v70,2013-03-24 12:32:00,
2013-03-24 06:37:00,13.0,4.8,30.16,East,90,3.0,6.0,69,0.00,,,0.00,Weather View 32 v70,2013-03-24 12:37:00,
2013-03-24 06:42:00,13.0,5.1,30.16,East,90,3.0,6.0,70,0.00,,,0.00,Weather View 32 v70,2013-03-24 12:42:00,
2013-03-24 06:47:00,13.0,5.4,30.16,East,90,3.0,6.0,71,0.00,,,0.00,Weather View 32 v70,2013-03-24 12:47:00,
2013-03-24 06:52:00,13.0,5.4,30.17,East,90,5.0,6.0,71,0.00,,,0.00,Weather View 32 v70,2013-03-24 12:52:00,
2013-03-24 06:57:00,13.0,6.0,30.17,East,90,4.0,6.0,73,0.00,,,0.00,Weather View 32 v70,2013-03-24 12:57:00,
2013-03-24 07:02:00,13.0,6.0,30.17,East,90,4.0,6.0,73,0.00,,,0.00,Weather View 32 v70,2013-03-24 13:02:00,
2013-03-24 07:07:00,13.0,6.0,30.17,East,90,5.0,6.0,73,0.00,,,0.00,Weather View 32 v70,2013-03-24 13:07:00,
2013-03-24 07:12:00,12.0,5.3,30.17,East,90,5.0,6.0,74,0.00,,,0.00,Weather View 32 v70,2013-03-24 13:12:00,
2013-03-24 07:17:00,12.0,5.3,30.17,East,90,3.0,6.0,74,0.00,,,0.00,Weather View 32 v70,2013-03-24 13:17:00,
2013-03-24 07:22:00,12.0,4.4,30.17,East,90,4.0,6.0,71,0.00,,,0.00,Weather View 32 v70,2013-03-24 13:22:00,
2013-03-24 07:27:00,13.0,4.8,30.17,East,90,5.0,6.0,69,0.00,,,0.00,Weather View 32 v70,2013-03-24 13:27:00,
2013-03-24 07:33:00,13.0,3.8,30.17,East,90,3.0,6.0,66,0.00,,,0.00,Weather View 32 v70,2013-03-24 13:33:00,
2013-03-24 07:38:00,14.0,3.4,30.17,East,90,1.0,6.0,62,0.00,,,0.00,Weather View 32 v70,2013-03-24 13:38:00,
2013-03-24 07:43:00,14.0,3.0,30.17,East,90,2.0,6.0,61,0.00,,,0.00,Weather View 32 v70,2013-03-24 13:43:00,
2013-03-24 07:47:00,15.0,3.6,30.17,East,90,3.0,6.0,60,0.00,,,0.00,Weather View 32 v70,2013-03-24 13:47:00,
2013-03-24 07:53:00,16.0,3.5,30.18,East,90,3.0,6.0,57,0.00,,,0.00,Weather View 32 v70,2013-03-24 13:53:00,
2013-03-24 07:57:00,16.0,2.7,30.18,East,90,3.0,6.0,55,0.00,,,0.00,Weather View 32 v70,2013-03-24 13:57:00,
2013-03-24 08:03:00,17.0,3.2,30.18,East,90,5.0,6.0,54,0.00,,,0.00,Weather View 32 v70,2013-03-24 14:03:00,
2013-03-24 08:08:00,18.0,3.8,30.18,East,90,6.0,8.0,53,0.00,,,0.00,Weather View 32 v70,2013-03-24 14:08:00,
2013-03-24 08:13:00,18.0,3.3,30.18,East,90,7.0,8.0,52,0.00,,,0.00,Weather View 32 v70,2013-03-24 14:13:00,
2013-03-24 08:18:00,19.0,3.0,30.18,East,90,5.0,8.0,49,0.00,,,0.00,Weather View 32 v70,2013-03-24 14:18:00,
2013-03-24 08:23:00,20.0,3.0,30.18,East,90,3.0,8.0,47,0.00,,,0.00,Weather View 32 v70,2013-03-24 14:23:00,
2013-03-24 08:28:00,20.0,1.6,30.18,ESE,112,6.0,8.0,44,0.00,,,0.00,Weather View 32 v70,2013-03-24 14:28:00,
2013-03-24 08:33:00,21.0,2.0,30.18,ESE,112,6.0,8.0,43,0.00,,,0.00,Weather View 32 v70,2013-03-24 14:33:00,
2013-03-24 08:38:00,22.0,1.4,30.18,ESE,112,7.0,8.0,40,0.00,,,0.00,Weather View 32 v70,2013-03-24 14:38:00,
2013-03-24 08:43:00,22.0,0.8,30.17,East,90,5.0,8.0,39,0.00,,,0.00,Weather View 32 v70,2013-03-24 14:43:00,
2013-03-24 08:48:00,23.0,0.6,30.17,East,90,3.0,8.0,37,0.00,,,0.00,Weather View 32 v70,2013-03-24 14:48:00,
2013-03-24 08:53:00,23.0,-0.6,30.17,East,90,5.0,8.0,35,0.00,,,0.00,Weather View 32 v70,2013-03-24 14:53:00,
2013-03-24 08:58:00,24.0,-0.3,30.17,ESE,112,5.0,8.0,34,0.00,,,0.00,Weather View 32 v70,2013-03-24 14:58:00,
2013-03-24 09:03:00,25.0,-0.1,30.17,East,90,7.0,8.0,33,0.00,,,0.00,Weather View 32 v70,2013-03-24 15:03:00,
2013-03-24 09:08:00,25.0,-0.7,30.17,East,90,3.0,8.0,32,0.00,,,0.00,Weather View 32 v70,2013-03-24 15:08:00,
2013-03-24 09:13:00,26.0,-1.2,30.16,East,90,5.0,8.0,30,0.00,,,0.00,Weather View 32 v70,2013-03-24 15:13:00,
2013-03-24 09:18:00,26.0,-2.7,30.16,ESE,112,4.0,8.0,28,0.00,,,0.00,Weather View 32 v70,2013-03-24 15:18:00,
2013-03-24 09:23:00,27.0,-2.6,30.16,SE,135,4.0,8.0,27,0.00,,,0.00,Weather View 32 v70,2013-03-24 15:23:00,
2013-03-24 09:28:00,27.0,-3.3,30.16,SE,135,3.0,8.0,26,0.00,,,0.00,Weather View 32 v70,2013-03-24 15:28:00,
2013-03-24 09:33:00,28.0,-3.3,30.17,SE,135,3.0,8.0,25,0.00,,,0.00,Weather View 32 v70,2013-03-24 15:33:00,
2013-03-24 09:38:00,29.0,-3.3,30.17,East,90,5.0,8.0,24,0.00,,,0.00,Weather View 32 v70,2013-03-24 15:38:00,
2013-03-24 09:43:00,29.0,-3.3,30.16,ENE,67,3.0,8.0,24,0.00,,,0.00,Weather View 32 v70,2013-03-24 15:43:00,
2013-03-24 09:48:00,30.0,-3.3,30.16,SSE,157,4.0,8.0,23,0.00,,,0.00,Weather View 32 v70,2013-03-24 15:48:00,
2013-03-24 09:53:00,31.0,-4.4,30.16,SSE,157,6.0,8.0,21,0.00,,,0.00,Weather View 32 v70,2013-03-24 15:53:00,
2013-03-24 09:58:00,32.0,-3.6,30.16,ESE,112,0.0,8.0,21,0.00,,,0.00,Weather View 32 v70,2013-03-24 15:58:00,
2013-03-24 10:03:00,32.0,-4.6,30.16,ESE,112,0.0,8.0,20,0.00,,,0.00,Weather View 32 v70,2013-03-24 16:03:00,
2013-03-24 10:08:00,34.0,-4.0,30.16,SW,225,1.0,8.0,19,0.00,,,0.00,Weather View 32 v70,2013-03-24 16:08:00,
2013-03-24 10:13:00,35.0,-3.1,30.15,SW,225,3.0,8.0,19,0.00,,,0.00,Weather View 32 v70,2013-03-24 16:13:00,
2013-03-24 10:18:00,36.0,-3.4,30.15,West,270,3.0,8.0,18,0.00,,,0.00,Weather View 32 v70,2013-03-24 16:18:00,
2013-03-24 10:23:00,37.0,-3.8,30.15,SW,225,6.0,8.0,17,0.00,,,0.00,Weather View 32 v70,2013-03-24 16:23:00,
2013-03-24 10:28:00,37.0,-3.8,30.15,SW,225,5.0,8.0,17,0.00,,,0.00,Weather View 32 v70,2013-03-24 16:28:00,
2013-03-24 10:33:00,37.0,-3.8,30.15,West,270,8.0,10.0,17,0.00,,,0.00,Weather View 32 v70,2013-03-24 16:33:00,
2013-03-24 10:38:00,37.0,-3.8,30.15,SW,225,3.0,10.0,17,0.00,,,0.00,Weather View 32 v70,2013-03-24 16:38:00,
2013-03-24 10:43:00,38.0,-4.3,30.14,SW,225,6.0,10.0,16,0.00,,,0.00,Weather View 32 v70,2013-03-24 16:43:00,
2013-03-24 10:48:00,38.0,-4.3,30.14,SW,225,6.0,10.0,16,0.00,,,0.00,Weather View 32 v70,2013-03-24 16:48:00,
2013-03-24 10:53:00,38.0,-4.3,30.14,West,270,4.0,12.0,16,0.00,,,0.00,Weather View 32 v70,2013-03-24 16:53:00,
2013-03-24 10:58:00,38.0,-3.0,30.14,WNW,292,5.0,13.0,17,0.00,,,0.00,Weather View 32 v70,2013-03-24 16:58:00,
2013-03-24 11:03:00,38.0,-3.0,30.14,NNW,337,5.0,13.0,17,0.00,,,0.00,Weather View 32 v70,2013-03-24 17:03:00,
2013-03-24 11:08:00,38.0,-3.0,30.14,SSW,202,3.0,13.0,17,0.00,,,0.00,Weather View 32 v70,2013-03-24 17:08:00,
2013-03-24 11:13:00,38.0,-4.3,30.13,NW,315,7.0,13.0,16,0.00,,,0.00,Weather View 32 v70,2013-03-24 17:13:00,
2013-03-24 11:18:00,39.0,-2.2,30.13,West,270,10.0,13.0,17,0.00,,,0.00,Weather View 32 v70,2013-03-24 17:18:00,
2013-03-24 11:23:00,39.0,-1.0,30.13,West,270,5.0,13.0,18,0.00,,,0.00,Weather View 32 v70,2013-03-24 17:23:00,
2013-03-24 11:28:00,39.0,-2.2,30.13,NW,315,8.0,13.0,17,0.00,,,0.00,Weather View 32 v70,2013-03-24 17:28:00,
2013-03-24 11:33:00,39.0,-2.2,30.12,West,270,9.0,13.0,17,0.00,,,0.00,Weather View 32 v70,2013-03-24 17:33:00,
2013-03-24 11:38:00,39.0,0.2,30.12,WNW,292,6.0,13.0,19,0.00,,,0.00,Weather View 32 v70,2013-03-24 17:38:00,
2013-03-24 11:43:00,39.0,0.2,30.12,NW,315,8.0,13.0,19,0.00,,,0.00,Weather View 32 v70,2013-03-24 17:43:00,
2013-03-24 11:48:00,39.0,-2.2,30.12,NW,315,6.0,14.0,17,0.00,,,0.00,Weather View 32 v70,2013-03-24 17:48:00,
2013-03-24 11:53:00,39.0,-1.0,30.12,SW,225,8.0,14.0,18,0.00,,,0.00,Weather View 32 v70,2013-03-24 17:53:00,
2013-03-24 11:58:00,40.0,-1.3,30.12,WNW,292,7.0,20.0,17,0.00,,,0.00,Weather View 32 v70,2013-03-24 17:58:00,
2013-03-24 12:03:00,40.0,-0.1,30.12,SW,225,6.0,20.0,18,0.00,,,0.00,Weather View 32 v70,2013-03-24 18:03:00,
2013-03-24 12:08:00,40.0,-1.3,30.12,West,270,9.0,20.0,17,0.00,,,0.00,Weather View 32 v70,2013-03-24 18:08:00,
2013-03-24 12:13:00,39.0,-1.0,30.11,North,360,9.0,20.0,18,0.00,,,0.00,Weather View 32 v70,2013-03-24 18:13:00,
2013-03-24 12:18:00,39.0,-1.0,30.11,West,270,6.0,20.0,18,0.00,,,0.00,Weather View 32 v70,2013-03-24 18:18:00,
2013-03-24 12:23:00,39.0,-2.2,30.10,West,270,13.0,20.0,17,0.00,,,0.00,Weather View 32 v70,2013-03-24 18:23:00,
2013-03-24 12:28:00,39.0,-2.2,30.10,NW,315,11.0,20.0,17,0.00,,,0.00,Weather View 32 v70,2013-03-24 18:28:00,
2013-03-24 12:33:00,40.0,1.0,30.10,West,270,15.0,22.0,19,0.00,,,0.00,Weather View 32 v70,2013-03-24 18:33:00,
2013-03-24 12:38:00,40.0,-1.3,30.10,NW,315,6.0,22.0,17,0.00,,,0.00,Weather View 32 v70,2013-03-24 18:38:00,
2013-03-24 12:43:00,40.0,-2.6,30.09,NW,315,11.0,23.0,16,0.00,,,0.00,Weather View 32 v70,2013-03-24 18:43:00,
2013-03-24 12:49:00,40.0,1.0,30.09,West,270,9.0,23.0,19,0.00,,,0.00,Weather View 32 v70,2013-03-24 18:49:00,
2013-03-24 12:54:00,40.0,2.1,30.09,North,360,3.0,23.0,20,0.00,,,0.00,Weather View 32 v70,2013-03-24 18:54:00,
2013-03-24 13:00:00,41.0,-0.5,30.09,SW,225,7.0,23.0,17,0.00,,,0.00,Weather View 32 v70,2013-03-24 19:00:00,
2013-03-24 13:05:00,41.0,-0.5,30.09,WNW,292,11.0,27.0,17,0.00,,,0.00,Weather View 32 v70,2013-03-24 19:05:00,
2013-03-24 13:10:00,41.0,0.7,30.09,WNW,292,9.0,27.0,18,0.00,,,0.00,Weather View 32 v70,2013-03-24 19:10:00,
2013-03-24 13:15:00,40.0,-2.6,30.09,NW,315,11.0,27.0,16,0.00,,,0.00,Weather View 32 v70,2013-03-24 19:15:00,
2013-03-24 13:20:00,41.0,-0.5,30.08,West,270,7.0,27.0,17,0.00,,,0.00,Weather View 32 v70,2013-03-24 19:20:00,
2013-03-24 13:25:00,41.0,-1.8,30.08,NW,315,11.0,27.0,16,0.00,,,0.00,Weather View 32 v70,2013-03-24 19:25:00,
2013-03-24 13:30:00,41.0,-1.8,30.08,WNW,292,15.0,27.0,16,0.00,,,0.00,Weather View 32 v70,2013-03-24 19:30:00,
2013-03-24 13:35:00,41.0,-0.5,30.08,NW,315,13.0,27.0,17,0.00,,,0.00,Weather View 32 v70,2013-03-24 19:35:00,
2013-03-24 13:40:00,41.0,-0.5,30.07,West,270,11.0,27.0,17,0.00,,,0.00,Weather View 32 v70,2013-03-24 19:40:00,
2013-03-24 13:45:00,41.0,-1.8,30.07,WNW,292,12.0,27.0,16,0.00,,,0.00,Weather View 32 v70,2013-03-24 19:45:00,
2013-03-24 13:50:00,41.0,-1.8,30.04,WNW,292,13.0,27.0,16,0.00,,,0.00,Weather View 32 v70,2013-03-24 19:50:00,
2013-03-24 13:55:00,41.0,-3.2,30.04,WSW,247,13.0,27.0,15,0.00,,,0.00,Weather View 32 v70,2013-03-24 19:55:00,
2013-03-24 14:01:00,41.0,-1.8,30.06,NW,315,12.0,28.0,16,0.00,,,0.00,Weather View 32 v70,2013-03-24 20:01:00,
2013-03-24 14:06:00,41.0,-0.5,30.06,NW,315,17.0,28.0,17,0.00,,,0.00,Weather View 32 v70,2013-03-24 20:06:00,
2013-03-24 14:11:00,41.0,-1.8,30.06,West,270,11.0,28.0,16,0.00,,,0.00,Weather View 32 v70,2013-03-24 20:11:00,
2013-03-24 14:16:00,41.0,-1.8,30.06,West,270,14.0,28.0,16,0.00,,,0.00,Weather View 32 v70,2013-03-24 20:16:00,
2013-03-24 14:21:00,42.0,0.3,30.05,WNW,292,9.0,28.0,17,0.00,,,0.00,Weather View 32 v70,2013-03-24 20:21:00,
2013-03-24 14:26:00,42.0,-2.4,30.05,West,270,25.0,28.0,15,0.00,,,0.00,Weather View 32 v70,2013-03-24 20:26:00,
2013-03-24 14:31:00,42.0,-1.0,30.04,NW,315,11.0,28.0,16,0.00,,,0.00,Weather View 32 v70,2013-03-24 20:31:00,
2013-03-24 14:36:00,42.0,-1.0,30.04,NW,315,10.0,28.0,16,0.00,,,0.00,Weather View 32 v70,2013-03-24 20:36:00,
2013-03-24 14:42:00,42.0,-2.4,30.04,NW,315,15.0,28.0,15,0.00,,,0.00,Weather View 32 v70,2013-03-24 20:42:00,
2013-03-24 14:47:00,42.0,-1.0,30.04,NW,315,19.0,28.0,16,0.00,,,0.00,Weather View 32 v70,2013-03-24 20:47:00,
2013-03-24 14:52:00,42.0,0.3,30.03,NW,315,21.0,28.0,17,0.00,,,0.00,Weather View 32 v70,2013-03-24 20:52:00,
2013-03-24 14:57:00,42.0,-1.0,30.03,NW,315,20.0,28.0,16,0.00,,,0.00,Weather View 32 v70,2013-03-24 20:57:00,
2013-03-24 15:02:00,42.0,-1.0,30.04,NW,315,18.0,28.0,16,0.00,,,0.00,Weather View 32 v70,2013-03-24 21:02:00,
2013-03-24 15:07:00,43.0,-0.2,30.04,NW,315,15.0,28.0,16,0.00,,,0.00,Weather View 32 v70,2013-03-24 21:07:00,
2013-03-24 15:12:00,43.0,-0.2,30.03,West,270,9.0,28.0,16,0.00,,,0.00,Weather View 32 v70,2013-03-24 21:12:00,
2013-03-24 15:17:00,43.0,-0.2,30.03,West,270,8.0,28.0,16,0.00,,,0.00,Weather View 32 v70,2013-03-24 21:17:00,
2013-03-24 15:22:00,43.0,-0.2,30.02,WNW,292,12.0,28.0,16,0.00,,,0.00,Weather View 32 v70,2013-03-24 21:22:00,
2013-03-24 15:27:00,43.0,-0.2,30.02,West,270,20.0,28.0,16,0.00,,,0.00,Weather View 32 v70,2013-03-24 21:27:00,
2013-03-24 15:32:00,43.0,-0.2,30.02,West,270,12.0,28.0,16,0.00,,,0.00,Weather View 32 v70,2013-03-24 21:32:00,
2013-03-24 15:37:00,44.0,0.6,30.02,NW,315,13.0,28.0,16,0.00,,,0.00,Weather View 32 v70,2013-03-24 21:37:00,
2013-03-24 15:42:00,44.0,1.9,30.02,NW,315,10.0,28.0,17,0.00,,,0.00,Weather View 32 v70,2013-03-24 21:42:00,
2013-03-24 15:47:00,44.0,-0.7,30.02,NW,315,19.0,28.0,15,0.00,,,0.00,Weather View 32 v70,2013-03-24 21:47:00,
2013-03-24 15:52:00,44.0,-0.7,30.01,WNW,292,9.0,27.0,15,0.00,,,0.00,Weather View 32 v70,2013-03-24 21:52:00,
2013-03-24 15:57:00,43.0,-1.5,30.01,NW,315,15.0,27.0,15,0.00,,,0.00,Weather View 32 v70,2013-03-24 21:57:00,
2013-03-24 16:03:00,43.0,-0.2,30.02,WNW,292,17.0,27.0,16,0.00,,,0.00,Weather View 32 v70,2013-03-24 22:03:00,
2013-03-24 16:08:00,43.0,-0.2,30.02,West,270,10.0,28.0,16,0.00,,,0.00,Weather View 32 v70,2013-03-24 22:08:00,
2013-03-24 16:13:00,44.0,0.6,30.01,West,270,16.0,28.0,16,0.00,,,0.00,Weather View 32 v70,2013-03-24 22:13:00,
2013-03-24 16:18:00,44.0,0.6,30.01,NW,315,8.0,28.0,16,0.00,,,0.00,Weather View 32 v70,2013-03-24 22:18:00,
2013-03-24 16:23:00,44.0,-2.2,30.01,NW,315,16.0,28.0,14,0.00,,,0.00,Weather View 32 v70,2013-03-24 22:23:00,
2013-03-24 16:28:00,44.0,-0.7,30.01,NW,315,10.0,28.0,15,0.00,,,0.00,Weather View 32 v70,2013-03-24 22:28:00,
2013-03-24 16:33:00,44.0,-2.2,30.01,NW,315,14.0,28.0,14,0.00,,,0.00,Weather View 32 v70,2013-03-24 22:33:00,
2013-03-24 16:38:00,44.0,0.6,30.01,West,270,14.0,28.0,16,0.00,,,0.00,Weather View 32 v70,2013-03-24 22:38:00,
2013-03-24 16:43:00,43.0,-0.2,30.02,NW,315,8.0,28.0,16,0.00,,,0.00,Weather View 32 v70,2013-03-24 22:43:00,
2013-03-24 16:48:00,44.0,0.6,30.02,WSW,247,10.0,28.0,16,0.00,,,0.00,Weather View 32 v70,2013-03-24 22:48:00,
2013-03-24 16:53:00,43.0,-1.5,30.01,West,270,10.0,28.0,15,0.00,,,0.00,Weather View 32 v70,2013-03-24 22:53:00,
2013-03-24 16:58:00,43.0,-1.5,30.01,West,270,21.0,28.0,15,0.00,,,0.00,Weather View 32 v70,2013-03-24 22:58:00,
2013-03-24 17:03:00,43.0,-0.2,30.01,NW,315,12.0,28.0,16,0.00,,,0.00,Weather View 32 v70,2013-03-24 23:03:00,
2013-03-24 17:08:00,43.0,-0.2,30.01,NW,315,12.0,31.0,16,0.00,,,0.00,Weather View 32 v70,2013-03-24 23:08:00,
2013-03-24 17:13:00,43.0,-0.2,30.02,NW,315,12.0,31.0,16,0.00,,,0.00,Weather View 32 v70,2013-03-24 23:13:00,
2013-03-24 17:18:00,43.0,-0.2,30.02,NW,315,8.0,31.0,16,0.00,,,0.00,Weather View 32 v70,2013-03-24 23:18:00,
2013-03-24 17:23:00,43.0,-0.2,30.02,West,270,14.0,31.0,16,0.00,,,0.00,Weather View 32 v70,2013-03-24 23:23:00,
2013-03-24 17:28:00,43.0,-3.0,30.02,NW,315,7.0,31.0,14,0.00,,,0.00,Weather View 32 v70,2013-03-24 23:28:00,
2013-03-24 17:33:00,44.0,0.6,30.02,West,270,9.0,31.0,16,0.00,,,0.00,Weather View 32 v70,2013-03-24 23:33:00,
2013-03-24 17:38:00,43.0,-1.5,30.02,NW,315,19.0,31.0,15,0.00,,,0.00,Weather View 32 v70,2013-03-24 23:38:00,
2013-03-24 17:43:00,43.0,-1.5,30.02,NW,315,14.0,31.0,15,0.00,,,0.00,Weather View 32 v70,2013-03-24 23:43:00,
2013-03-24 17:48:00,43.0,-0.2,30.02,West,270,16.0,31.0,16,0.00,,,0.00,Weather View 32 v70,2013-03-24 23:48:00,
2013-03-24 17:53:00,43.0,-0.2,30.03,West,270,7.0,31.0,16,0.00,,,0.00,Weather View 32 v70,2013-03-24 23:53:00,
2013-03-24 17:58:00,43.0,-0.2,30.03,West,270,7.0,31.0,16,0.00,,,0.00,Weather View 32 v70,2013-03-24 23:58:00,
2013-03-24 18:03:00,43.0,-1.5,30.03,West,270,16.0,31.0,15,0.00,,,0.00,Weather View 32 v70,2013-03-25 00:03:00,
2013-03-24 18:08:00,42.0,-2.4,30.03,WNW,292,14.0,28.0,15,0.00,,,0.00,Weather View 32 v70,2013-03-25 00:08:00,
2013-03-24 18:13:00,42.0,-1.0,30.02,NW,315,8.0,27.0,16,0.00,,,0.00,Weather View 32 v70,2013-03-25 00:13:00,
2013-03-24 18:18:00,42.0,-2.4,30.02,West,270,14.0,27.0,15,0.00,,,0.00,Weather View 32 v70,2013-03-25 00:18:00,
2013-03-24 18:23:00,42.0,-2.4,30.03,WNW,292,12.0,26.0,15,0.00,,,0.00,Weather View 32 v70,2013-03-25 00:23:00,
2013-03-24 18:28:00,42.0,-1.0,30.03,West,270,9.0,26.0,16,0.00,,,0.00,Weather View 32 v70,2013-03-25 00:28:00,
2013-03-24 18:33:00,42.0,-2.4,30.02,NW,315,14.0,26.0,15,0.00,,,0.00,Weather View 32 v70,2013-03-25 00:33:00,
2013-03-24 18:38:00,42.0,-1.0,30.02,West,270,9.0,26.0,16,0.00,,,0.00,Weather View 32 v70,2013-03-25 00:38:00,
2013-03-24 18:43:00,42.0,0.3,30.03,West,270,6.0,26.0,17,0.00,,,0.00,Weather View 32 v70,2013-03-25 00:43:00,
2013-03-24 18:48:00,42.0,-1.0,30.03,NW,315,15.0,26.0,16,0.00,,,0.00,Weather View 32 v70,2013-03-25 00:48:00,
2013-03-24 18:53:00,41.0,-1.8,30.03,NW,315,12.0,26.0,16,0.00,,,0.00,Weather View 32 v70,2013-03-25 00:53:00,
2013-03-24 18:58:00,41.0,-1.8,30.03,NW,315,9.0,26.0,16,0.00,,,0.00,Weather View 32 v70,2013-03-25 00:58:00,
2013-03-24 19:03:00,41.0,-1.8,30.04,NW,315,8.0,26.0,16,0.00,,,0.00,Weather View 32 v70,2013-03-25 01:03:00,
2013-03-24 19:09:00,41.0,-1.8,30.04,NW,315,8.0,26.0,16,0.00,,,0.00,Weather View 32 v70,2013-03-25 01:09:00,
2013-03-24 19:14:00,40.0,-1.3,30.04,NW,315,10.0,26.0,17,0.00,,,0.00,Weather View 32 v70,2013-03-25 01:14:00,
2013-03-24 19:19:00,40.0,-1.3,30.04,NW,315,12.0,26.0,17,0.00,,,0.00,Weather View 32 v70,2013-03-25 01:19:00,
2013-03-24 19:25:00,40.0,-1.3,30.04,WNW,292,6.0,26.0,17,0.00,,,0.00,Weather View 32 v70,2013-03-25 01:25:00,
2013-03-24 19:30:00,40.0,-0.1,30.04,NNW,337,5.0,26.0,18,0.00,,,0.00,Weather View 32 v70,2013-03-25 01:30:00,
2013-03-24 19:35:00,39.0,-2.2,30.04,NW,315,7.0,26.0,17,0.00,,,0.00,Weather View 32 v70,2013-03-25 01:35:00,
2013-03-24 19:40:00,39.0,-2.2,30.04,NW,315,5.0,26.0,17,0.00,,,0.00,Weather View 32 v70,2013-03-25 01:40:00,
2013-03-24 19:45:00,38.0,-3.0,30.04,NW,315,7.0,21.0,17,0.00,,,0.00,Weather View 32 v70,2013-03-25 01:45:00,
2013-03-24 19:50:00,39.0,-2.2,30.05,NW,315,10.0,21.0,17,0.00,,,0.00,Weather View 32 v70,2013-03-25 01:50:00,
2013-03-24 19:55:00,38.0,-1.8,30.05,West,270,7.0,21.0,18,0.00,,,0.00,Weather View 32 v70,2013-03-25 01:55:00,
2013-03-24 20:00:00,38.0,-0.6,30.05,NW,315,6.0,16.0,19,0.00,,,0.00,Weather View 32 v70,2013-03-25 02:00:00,
2013-03-24 20:05:00,38.0,-0.6,30.05,NW,315,7.0,16.0,19,0.00,,,0.00,Weather View 32 v70,2013-03-25 02:05:00,
2013-03-24 20:10:00,38.0,-0.6,30.05,WNW,292,5.0,16.0,19,0.00,,,0.00,Weather View 32 v70,2013-03-25 02:10:00,
2013-03-24 20:15:00,37.0,-1.5,30.05,NW,315,5.0,16.0,19,0.00,,,0.00,Weather View 32 v70,2013-03-25 02:15:00,
2013-03-24 20:20:00,37.0,-1.5,30.06,NW,315,6.0,13.0,19,0.00,,,0.00,Weather View 32 v70,2013-03-25 02:20:00,
2013-03-24 20:25:00,37.0,-1.5,30.06,NW,315,4.0,13.0,19,0.00,,,0.00,Weather View 32 v70,2013-03-25 02:25:00,
2013-03-24 20:30:00,37.0,-2.6,30.06,NNW,337,8.0,13.0,18,0.00,,,0.00,Weather View 32 v70,2013-03-25 02:30:00,
2013-03-24 20:35:00,37.0,-3.8,30.06,NNW,337,5.0,14.0,17,0.00,,,0.00,Weather View 32 v70,2013-03-25 02:35:00,
2013-03-24 20:40:00,37.0,-3.8,30.07,NW,315,10.0,14.0,17,0.00,,,0.00,Weather View 32 v70,2013-03-25 02:40:00,
2013-03-24 20:45:00,37.0,-3.8,30.07,North,360,6.0,14.0,17,0.00,,,0.00,Weather View 32 v70,2013-03-25 02:45:00,
2013-03-24 20:50:00,37.0,-5.1,30.08,North,360,10.0,15.0,16,0.00,,,0.00,Weather View 32 v70,2013-03-25 02:50:00,
2013-03-24 20:55:00,37.0,-5.1,30.08,NNW,337,8.0,19.0,16,0.00,,,0.00,Weather View 32 v70,2013-03-25 02:55:00,
2013-03-24 21:00:00,37.0,-5.1,30.08,North,360,7.0,19.0,16,0.00,,,0.00,Weather View 32 v70,2013-03-25 03:00:00,
2013-03-24 21:05:00,36.0,-5.9,30.08,NW,315,9.0,19.0,16,0.00,,,0.00,Weather View 32 v70,2013-03-25 03:05:00,
2013-03-24 21:10:00,36.0,-5.9,30.08,North,360,8.0,19.0,16,0.00,,,0.00,Weather View 32 v70,2013-03-25 03:10:00,
2013-03-24 21:15:00,36.0,-5.9,30.08,North,360,10.0,19.0,16,0.00,,,0.00,Weather View 32 v70,2013-03-25 03:15:00,
2013-03-24 21:20:00,36.0,-5.9,30.08,North,360,7.0,19.0,16,0.00,,,0.00,Weather View 32 v70,2013-03-25 03:20:00,
2013-03-24 21:25:00,36.0,-5.9,30.08,North,360,7.0,19.0,16,0.00,,,0.00,Weather View 32 v70,2013-03-25 03:25:00,
2013-03-24 21:30:00,36.0,-5.9,30.08,North,360,9.0,19.0,16,0.00,,,0.00,Weather View 32 v70,2013-03-25 03:30:00,
2013-03-24 21:35:00,36.0,-5.9,30.08,North,360,9.0,19.0,16,0.00,,,0.00,Weather View 32 v70,2013-03-25 03:35:00,
2013-03-24 21:40:00,36.0,-5.9,30.09,North,360,6.0,19.0,16,0.00,,,0.00,Weather View 32 v70,2013-03-25 03:40:00,
2013-03-24 21:45:00,35.0,-6.7,30.09,North,360,9.0,19.0,16,0.00,,,0.00,Weather View 32 v70,2013-03-25 03:45:00,
2013-03-24 21:50:00,35.0,-6.7,30.09,North,360,11.0,19.0,16,0.00,,,0.00,Weather View 32 v70,2013-03-25 03:50:00,
2013-03-24 21:55:00,35.0,-5.4,30.09,NE,45,9.0,15.0,17,0.00,,,0.00,Weather View 32 v70,2013-03-25 03:55:00,
2013-03-24 22:00:00,35.0,-5.4,30.09,North,360,7.0,14.0,17,0.00,,,0.00,Weather View 32 v70,2013-03-25 04:00:00,
2013-03-24 22:05:00,34.0,-6.3,30.09,North,360,6.0,14.0,17,0.00,,,0.00,Weather View 32 v70,2013-03-25 04:05:00,
2013-03-24 22:10:00,35.0,-5.4,30.10,North,360,6.0,14.0,17,0.00,,,0.00,Weather View 32 v70,2013-03-25 04:10:00,
2013-03-24 22:15:00,34.0,-6.3,30.10,North,360,12.0,14.0,17,0.00,,,0.00,Weather View 32 v70,2013-03-25 04:15:00,
2013-03-24 22:20:00,34.0,-6.3,30.10,North,360,10.0,14.0,17,0.00,,,0.00,Weather View 32 v70,2013-03-25 04:20:00,
2013-03-24 22:25:00,34.0,-5.1,30.10,North,360,5.0,14.0,18,0.00,,,0.00,Weather View 32 v70,2013-03-25 04:25:00,
2013-03-24 22:30:00,34.0,-5.1,30.10,North,360,6.0,14.0,18,0.00,,,0.00,Weather View 32 v70,2013-03-25 04:30:00,
2013-03-24 22:35:00,34.0,-5.1,30.10,North,360,8.0,14.0,18,0.00,,,0.00,Weather View 32 v70,2013-03-25 04:35:00,
2013-03-24 22:40:00,34.0,-5.1,30.11,NNE,22,6.0,14.0,18,0.00,,,0.00,Weather View 32 v70,2013-03-25 04:40:00,
2013-03-24 22:45:00,33.0,-4.8,30.11,NNE,22,6.0,13.0,19,0.00,,,0.00,Weather View 32 v70,2013-03-25 04:45:00,
2013-03-24 22:50:00,33.0,-4.8,30.11,NNE,22,4.0,13.0,19,0.00,,,0.00,Weather View 32 v70,2013-03-25 04:50:00,
2013-03-24 22:55:00,33.0,-4.8,30.11,NNE,22,0.0,13.0,19,0.00,,,0.00,Weather View 32 v70,2013-03-25 04:55:00,
2013-03-24 23:00:00,33.0,-4.8,30.12,NNE,22,0.0,13.0,19,0.00,,,0.00,Weather View 32 v70,2013-03-25 05:00:00,
2013-03-24 23:05:00,32.0,-2.6,30.12,NNE,22,0.0,13.0,22,0.00,,,0.00,Weather View 32 v70,2013-03-25 05:05:00,
2013-03-24 23:10:00,32.0,-3.6,30.12,NNE,22,1.0,13.0,21,0.00,,,0.00,Weather View 32 v70,2013-03-25 05:10:00,
2013-03-24 23:15:00,31.0,-3.4,30.12,NNE,22,0.0,13.0,22,0.00,,,0.00,Weather View 32 v70,2013-03-25 05:15:00,
2013-03-24 23:20:00,31.0,-1.6,30.12,NW,315,5.0,13.0,24,0.00,,,0.00,Weather View 32 v70,2013-03-25 05:20:00,
2013-03-24 23:25:00,30.0,-2.4,30.12,NW,315,0.0,12.0,24,0.00,,,0.00,Weather View 32 v70,2013-03-25 05:25:00,
2013-03-24 23:30:00,30.0,-4.3,30.12,NE,45,2.0,12.0,22,0.00,,,0.00,Weather View 32 v70,2013-03-25 05:30:00,
2013-03-24 23:35:00,31.0,-4.4,30.12,NNE,22,4.0,10.0,21,0.00,,,0.00,Weather View 32 v70,2013-03-25 05:35:00,
2013-03-24 23:40:00,32.0,-3.6,30.12,North,360,7.0,10.0,21,0.00,,,0.00,Weather View 32 v70,2013-03-25 05:40:00,
2013-03-24 23:45:00,32.0,-3.6,30.12,NNE,22,7.0,10.0,21,0.00,,,0.00,Weather View 32 v70,2013-03-25 05:45:00,
2013-03-24 23:50:00,32.0,-3.6,30.12,NNE,22,8.0,10.0,21,0.00,,,0.00,Weather View 32 v70,2013-03-25 05:50:00,
2013-03-24 23:55:00,31.0,-3.4,30.12,North,360,8.0,10.0,22,0.00,,,0.00,Weather View 32 v70,2013-03-25 05:55:00,